createdAt,value
2022-12-29T00:03:37.683Z,77.10
2022-12-29T00:07:57.265Z,77.00
2022-12-29T00:12:17.917Z,77.00
2022-12-29T00:16:38.142Z,76.40
2022-12-29T00:21:16.267Z,76.60
2022-12-29T00:25:55.680Z,76.50
2022-12-29T00:30:33.356Z,76.20
2022-12-29T00:35:11.139Z,76.30
2022-12-29T00:39:48.712Z,76.30
2022-12-29T00:44:11.206Z,76.10
2022-12-29T00:48:47.806Z,76.10
2022-12-29T00:53:06.903Z,76.00
2022-12-29T00:57:26.293Z,76.00
2022-12-29T01:01:46.447Z,76.20
2022-12-29T01:06:06.403Z,76.00
2022-12-29T01:10:25.323Z,75.80
2022-12-29T01:14:48.234Z,76.60
2022-12-29T01:19:07.855Z,75.70
2022-12-29T01:23:26.064Z,75.80
2022-12-29T01:27:43.783Z,75.90
2022-12-29T01:32:03.160Z,76.10
2022-12-29T01:36:23.414Z,76.10
2022-12-29T01:40:48.943Z,76.10
2022-12-29T01:45:14.448Z,76.20
2022-12-29T01:49:34.316Z,76.40
2022-12-29T01:53:56.344Z,76.40
2022-12-29T01:58:17.281Z,76.60
2022-12-29T02:02:36.355Z,76.70
2022-12-29T02:06:59.418Z,76.90
2022-12-29T02:11:18.261Z,77.30
2022-12-29T02:15:47.655Z,77.70
2022-12-29T02:20:44.260Z,78.10
2022-12-29T02:25:34.520Z,78.40
2022-12-29T02:30:17.724Z,78.80
2022-12-29T02:34:42.848Z,79.00
2022-12-29T02:39:07.506Z,79.20
2022-12-29T02:43:35.760Z,79.10
2022-12-29T02:48:03.989Z,79.10
2022-12-29T02:52:29.090Z,79.00
2022-12-29T02:56:46.273Z,78.90
2022-12-29T03:01:19.013Z,78.70
2022-12-29T03:06:07.923Z,78.50
2022-12-29T03:10:37.683Z,78.00
2022-12-29T03:15:19.835Z,78.00
2022-12-29T03:19:44.960Z,78.00
2022-12-29T03:24:03.728Z,78.10
2022-12-29T03:28:26.556Z,78.30
2022-12-29T03:32:49.284Z,78.60
2022-12-29T03:37:15.191Z,78.80
2022-12-29T03:41:35.432Z,78.80
2022-12-29T03:45:56.689Z,79.50
2022-12-29T03:50:16.518Z,78.90
2022-12-29T03:54:37.521Z,78.90
2022-12-29T03:58:55.604Z,79.10
2022-12-29T04:03:25.709Z,79.10
2022-12-29T04:07:43.979Z,79.10
2022-12-29T04:12:02.075Z,79.30
2022-12-29T04:16:20.164Z,79.50
2022-12-29T04:20:57.146Z,79.70
2022-12-29T04:25:14.701Z,80.00
2022-12-29T04:29:35.749Z,80.20
2022-12-29T04:34:24.781Z,80.40
2022-12-29T04:38:44.871Z,80.60
2022-12-29T04:43:03.684Z,80.70
2022-12-29T04:47:24.941Z,80.90
2022-12-29T04:51:58.310Z,81.20
2022-12-29T04:56:17.675Z,82.20
2022-12-29T05:00:37.519Z,81.90
2022-12-29T05:04:55.640Z,82.20
2022-12-29T05:09:13.557Z,82.60
2022-12-29T05:13:33.235Z,83.00
2022-12-29T05:17:56.040Z,83.10
2022-12-29T05:22:13.958Z,83.20
2022-12-29T05:26:35.004Z,83.50
2022-12-29T05:31:15.953Z,83.90
2022-12-29T05:35:35.919Z,84.70
2022-12-29T05:39:53.888Z,85.60
2022-12-29T05:44:12.449Z,86.50
2022-12-29T05:48:38.235Z,87.70
2022-12-29T05:53:09.485Z,88.50
2022-12-29T05:57:30.580Z,89.30
2022-12-29T06:02:01.016Z,90.00
2022-12-29T06:06:20.300Z,90.10
2022-12-29T06:10:40.072Z,90.20
2022-12-29T06:15:01.309Z,90.30
2022-12-29T06:19:19.234Z,90.40
2022-12-29T06:23:38.764Z,90.40
2022-12-29T06:27:58.499Z,90.20
2022-12-29T06:32:16.560Z,90.20
2022-12-29T06:36:41.168Z,89.90
2022-12-29T06:41:00.233Z,89.50
2022-12-29T06:45:26.185Z,89.00
2022-12-29T06:49:46.614Z,88.70
2022-12-29T06:54:09.368Z,88.50
2022-12-29T06:58:30.818Z,88.40
2022-12-29T07:02:50.616Z,88.40
2022-12-29T07:07:08.680Z,88.50
2022-12-29T07:11:26.895Z,88.80
2022-12-29T07:15:48.782Z,89.50
2022-12-29T07:20:06.865Z,90.10
2022-12-29T07:24:23.982Z,90.40
2022-12-29T07:28:42.808Z,90.80
2022-12-29T07:33:01.521Z,91.40
2022-12-29T07:37:21.257Z,92.00
2022-12-29T07:41:39.280Z,92.20
2022-12-29T07:46:00.324Z,92.40
2022-12-29T07:50:22.890Z,92.80
2022-12-29T07:54:42.443Z,93.40
2022-12-29T07:59:00.548Z,93.80
2022-12-29T08:03:18.693Z,94.00
2022-12-29T08:07:38.252Z,93.90
2022-12-29T08:11:57.851Z,93.80
2022-12-29T08:16:15.873Z,93.70
2022-12-29T08:20:34.095Z,93.70
2022-12-29T08:24:54.141Z,93.60
2022-12-29T08:29:13.255Z,93.40
2022-12-29T08:33:31.415Z,92.90
2022-12-29T08:37:49.155Z,92.60
2022-12-29T08:42:08.632Z,92.30
2022-12-29T08:46:31.089Z,92.00
2022-12-29T08:50:50.294Z,91.70
2022-12-29T08:55:08.157Z,91.50
2022-12-29T08:59:27.175Z,90.90
2022-12-29T09:08:29.344Z,90.10
2022-12-29T09:12:47.619Z,89.30
2022-12-29T09:17:24.715Z,88.70
2022-12-29T09:21:41.880Z,87.80
2022-12-29T09:26:00.064Z,86.10
2022-12-29T09:30:18.185Z,84.50
2022-12-29T09:34:37.509Z,82.60
2022-12-29T09:38:57.268Z,81.00
2022-12-29T09:43:34.647Z,79.70
2022-12-29T09:47:52.805Z,78.50
2022-12-29T09:52:17.093Z,77.30
2022-12-29T09:56:37.102Z,75.60
2022-12-29T10:01:00.901Z,74.90
2022-12-29T10:05:40.660Z,75.10
2022-12-29T10:10:16.888Z,76.10
2022-12-29T10:14:51.628Z,77.00
2022-12-29T10:19:33.128Z,77.90
2022-12-29T10:23:53.822Z,78.40
2022-12-29T10:28:21.247Z,78.20
2022-12-29T10:32:45.008Z,77.90
2022-12-29T10:37:07.574Z,76.50
2022-12-29T10:41:30.417Z,76.30
2022-12-29T10:45:51.229Z,75.50
2022-12-29T10:50:17.814Z,74.60
2022-12-29T10:54:44.599Z,74.50
2022-12-29T10:59:08.488Z,74.20
2022-12-29T11:04:00.078Z,73.50
2022-12-29T11:08:21.665Z,73.20
2022-12-29T11:12:39.185Z,72.80
2022-12-29T11:17:00.441Z,72.80
2022-12-29T11:21:34.430Z,72.30
2022-12-29T11:26:09.362Z,72.10
2022-12-29T11:30:30.652Z,72.10
2022-12-29T11:34:49.894Z,72.10
2022-12-29T11:39:28.801Z,72.20
2022-12-29T11:43:48.581Z,71.50
2022-12-29T11:48:10.976Z,71.50
2022-12-29T11:52:34.164Z,70.60
2022-12-29T11:56:55.291Z,70.70
2022-12-29T12:01:19.536Z,70.00
2022-12-29T12:05:43.419Z,70.00
2022-12-29T12:10:08.127Z,70.40
2022-12-29T12:14:33.934Z,70.70
2022-12-29T12:19:14.560Z,70.70
2022-12-29T12:23:43.295Z,71.00
2022-12-29T12:28:06.868Z,70.90
2022-12-29T12:32:32.345Z,70.60
2022-12-29T12:37:14.388Z,70.30
2022-12-29T12:42:40.383Z,69.70
2022-12-29T12:48:09.357Z,69.30
2022-12-29T12:53:47.368Z,69.00
2022-12-29T19:12:56.330Z,90.40
2022-12-29T19:18:08.595Z,90.90
2022-12-29T19:23:08.033Z,90.60
2022-12-29T19:28:03.817Z,90.60
2022-12-29T19:33:01.383Z,90.80
2022-12-29T19:37:57.893Z,91.10
2022-12-29T19:43:06.412Z,91.40
2022-12-29T19:48:24.368Z,91.60
2022-12-29T19:53:39.395Z,91.70
2022-12-29T19:58:54.361Z,92.10
2022-12-29T20:03:57.975Z,92.30
2022-12-29T20:08:52.658Z,92.40
2022-12-29T20:13:47.998Z,92.50
2022-12-29T20:18:45.263Z,92.80
2022-12-29T20:23:41.899Z,93.20
2022-12-29T20:28:37.952Z,93.50
2022-12-29T20:33:33.851Z,93.80
2022-12-29T20:38:28.765Z,93.90
2022-12-29T20:43:24.906Z,94.00
2022-12-29T20:48:19.670Z,94.00
2022-12-29T20:53:14.794Z,94.10
2022-12-29T20:58:26.044Z,94.20
2022-12-29T21:03:25.326Z,94.30
2022-12-29T21:08:00.796Z,94.40
2022-12-29T21:12:35.267Z,94.50
2022-12-29T21:17:11.676Z,94.70
2022-12-29T21:22:05.551Z,94.70
2022-12-29T21:26:57.248Z,94.70
2022-12-29T21:31:51.939Z,94.70
2022-12-29T21:36:46.660Z,94.80
2022-12-29T21:41:25.351Z,94.80
2022-12-29T21:46:00.541Z,94.90
2022-12-29T21:50:15.578Z,94.90
2022-12-29T21:55:09.115Z,94.80
2022-12-29T22:00:02.586Z,94.90
2022-12-29T22:05:01.880Z,95.00
2022-12-29T22:10:16.832Z,95.10
2022-12-29T22:14:52.213Z,95.10
2022-12-29T22:19:12.341Z,95.10
2022-12-29T22:23:30.014Z,95.00
2022-12-29T22:27:48.009Z,95.20
2022-12-29T22:32:07.610Z,95.20
2022-12-29T22:36:28.076Z,95.40
2022-12-29T22:40:45.135Z,95.80
2022-12-29T22:45:03.334Z,95.80
2022-12-29T22:49:23.646Z,96.00
2022-12-29T22:53:42.438Z,96.00
2022-12-29T22:58:00.453Z,96.00
2022-12-29T23:02:18.691Z,96.20
2022-12-29T23:06:38.087Z,96.40
2022-12-29T23:10:57.883Z,96.60
2022-12-29T23:15:16.291Z,96.80
2022-12-29T23:19:33.889Z,96.90
2022-12-29T23:23:56.258Z,96.80
2022-12-29T23:28:16.172Z,96.70
2022-12-29T23:32:34.228Z,96.60
2022-12-29T23:36:52.223Z,96.50
2022-12-29T23:41:12.086Z,96.50
2022-12-29T23:45:31.321Z,96.30
2022-12-29T23:49:50.110Z,96.20
2022-12-29T23:54:07.651Z,96.00
2022-12-29T23:58:27.344Z,95.80
